createdAt,value
2019-04-26T00:00:52.365Z,27.16
2019-04-26T00:03:28.994Z,27.14
2019-04-26T00:05:58.706Z,27.17
2019-04-26T00:08:27.105Z,27.16
2019-04-26T00:11:13.937Z,27.16
2019-04-26T00:13:59.700Z,27.12
2019-04-26T00:16:32.159Z,27.10
2019-04-26T00:19:00.544Z,27.11
2019-04-26T00:21:28.822Z,27.13
2019-04-26T00:23:57.022Z,27.10
2019-04-26T00:26:25.178Z,27.07
2019-04-26T00:28:52.950Z,27.08
2019-04-26T00:31:21.360Z,27.06
2019-04-26T00:33:49.424Z,27.07
2019-04-26T00:36:18.661Z,27.06
2019-04-26T00:38:46.610Z,27.03
2019-04-26T00:41:14.595Z,27.03
2019-04-26T00:43:42.566Z,27.04
2019-04-26T00:46:10.612Z,27.03
2019-04-26T00:48:39.169Z,27.04
2019-04-26T00:51:07.304Z,27.02
2019-04-26T00:53:35.215Z,27.03
2019-04-26T00:56:02.988Z,27.04
2019-04-26T00:58:33.466Z,27.02
2019-04-26T01:01:01.328Z,26.94
2019-04-26T01:03:29.229Z,26.95
2019-04-26T01:06:00.087Z,26.94
2019-04-26T01:08:28.352Z,26.95
2019-04-26T01:10:56.431Z,26.97
2019-04-26T01:13:24.372Z,26.97
2019-04-26T01:15:52.359Z,26.93
2019-04-26T01:18:20.238Z,26.93
2019-04-26T01:20:48.309Z,26.90
2019-04-26T01:23:17.429Z,26.91
2019-04-26T01:25:52.463Z,26.93
2019-04-26T01:28:23.464Z,26.92
2019-04-26T01:30:51.546Z,26.91
2019-04-26T01:33:20.120Z,26.94
2019-04-26T01:35:48.487Z,26.90
2019-04-26T01:38:16.480Z,26.91
2019-04-26T01:40:46.026Z,26.87
2019-04-26T01:43:42.075Z,26.90
2019-04-26T01:46:17.520Z,26.89
2019-04-26T01:49:04.614Z,26.87
2019-04-26T01:51:38.539Z,26.86
2019-04-26T01:54:08.609Z,26.86
2019-04-26T01:56:36.519Z,26.83
2019-04-26T01:59:04.588Z,26.82
2019-04-26T02:01:44.609Z,26.83
2019-04-26T02:04:12.651Z,26.85
2019-04-26T02:06:40.513Z,26.81
2019-04-26T02:09:10.190Z,26.82
2019-04-26T02:11:38.309Z,26.79
2019-04-26T02:14:06.280Z,26.78
2019-04-26T02:16:34.259Z,26.75
2019-04-26T02:19:02.270Z,26.78
2019-04-26T02:21:35.534Z,26.80
2019-04-26T02:24:21.521Z,26.84
2019-04-26T02:26:49.502Z,26.80
2019-04-26T02:29:18.024Z,26.77
2019-04-26T02:31:47.207Z,26.81
2019-04-26T02:34:15.130Z,26.82
2019-04-26T02:36:57.359Z,26.79
2019-04-26T02:39:16.971Z,26.78
2019-04-26T02:41:45.466Z,26.79
2019-04-26T02:44:13.531Z,26.82
2019-04-26T02:46:57.754Z,26.80
2019-04-26T02:49:34.201Z,26.78
2019-04-26T02:52:05.649Z,26.79
2019-04-26T02:54:47.291Z,26.77
2019-04-26T02:57:23.226Z,26.75
2019-04-26T02:59:51.317Z,26.73
2019-04-26T03:02:22.487Z,26.74
2019-04-26T03:04:51.107Z,26.73
2019-04-26T03:07:22.033Z,26.72
2019-04-26T03:09:50.446Z,26.74
2019-04-26T03:12:18.349Z,26.70
2019-04-26T03:14:53.750Z,26.70
2019-04-26T03:17:36.131Z,26.71
2019-04-26T03:20:06.579Z,26.73
2019-04-26T03:22:42.710Z,26.71
2019-04-26T03:25:15.278Z,26.70
2019-04-26T03:28:11.192Z,26.67
2019-04-26T03:30:49.043Z,26.71
2019-04-26T03:33:29.729Z,26.69
2019-04-26T03:36:15.951Z,26.67
2019-04-26T03:38:58.931Z,26.66
2019-04-26T03:41:34.367Z,26.63
2019-04-26T03:44:07.050Z,26.62
2019-04-26T03:46:40.910Z,26.62
2019-04-26T03:49:32.095Z,26.66
2019-04-26T03:52:18.149Z,26.61
2019-04-26T03:54:46.453Z,26.61
2019-04-26T03:57:23.040Z,26.62
2019-04-26T04:00:20.703Z,26.60
2019-04-26T04:03:10.760Z,26.62
2019-04-26T04:05:44.179Z,26.62
2019-04-26T04:08:14.877Z,26.61
2019-04-26T04:10:47.539Z,26.63
2019-04-26T04:13:40.844Z,26.62
2019-04-26T04:16:13.042Z,26.63
2019-04-26T04:18:43.863Z,26.60
2019-04-26T04:21:20.738Z,26.55
2019-04-26T04:23:51.449Z,26.59
2019-04-26T04:26:21.887Z,26.63
2019-04-26T04:29:18.421Z,26.57
2019-04-26T04:31:48.100Z,26.56
2019-04-26T04:34:20.708Z,26.58
2019-04-26T04:36:51.310Z,26.59
2019-04-26T04:39:23.209Z,26.57
2019-04-26T04:42:11.757Z,26.56
2019-04-26T04:45:00.429Z,26.60
2019-04-26T04:47:41.301Z,26.56
2019-04-26T04:50:32.857Z,26.61
2019-04-26T04:53:02.718Z,26.58
2019-04-26T04:55:43.505Z,26.57
2019-04-26T04:58:13.635Z,26.57
2019-04-26T05:00:51.343Z,26.61
2019-04-26T05:03:26.504Z,26.59
2019-04-26T05:06:07.604Z,26.56
2019-04-26T05:08:44.436Z,26.60
2019-04-26T05:11:17.056Z,26.61
2019-04-26T05:13:47.828Z,26.59
2019-04-26T05:16:38.889Z,26.63
2019-04-26T05:19:27.363Z,26.67
2019-04-26T05:22:14.500Z,26.68
2019-04-26T05:25:01.589Z,26.66
2019-04-26T05:30:57.760Z,26.71
2019-04-26T05:36:56.835Z,26.80
2019-04-26T05:39:43.886Z,26.78
2019-04-26T05:48:25.215Z,26.90
2019-04-26T05:57:42.461Z,26.86
2019-04-26T06:00:39.987Z,26.90
2019-04-26T06:03:30.091Z,26.98
2019-04-26T06:06:36.184Z,27.01
2019-04-26T06:09:42.314Z,26.95
2019-04-26T06:24:31.387Z,27.05
2019-04-26T06:27:37.405Z,27.12
2019-04-26T06:30:24.895Z,27.11
2019-04-26T06:33:12.099Z,27.08
2019-04-26T06:41:59.040Z,27.11
2019-04-26T06:47:41.944Z,27.14
2019-04-26T06:50:33.799Z,27.18
2019-04-26T06:53:20.981Z,27.23
2019-04-26T06:56:09.967Z,27.20
2019-04-26T06:58:57.916Z,27.23
2019-04-26T07:04:17.330Z,27.25
2019-04-26T07:07:04.618Z,27.21
2019-04-26T07:09:34.935Z,27.25
2019-04-26T07:15:28.719Z,27.32
2019-04-26T07:18:12.764Z,27.33
2019-04-26T07:21:01.575Z,27.32
2019-04-26T07:24:08.468Z,27.33
2019-04-26T07:26:55.635Z,27.37
2019-04-26T07:29:42.740Z,27.44
2019-04-26T07:32:15.316Z,27.43
2019-04-26T07:38:12.672Z,27.49
2019-04-26T07:47:14.373Z,27.52
2019-04-26T07:50:04.043Z,27.50
2019-04-26T07:52:34.988Z,27.57
2019-04-26T07:55:22.233Z,27.59
2019-04-26T07:58:09.372Z,27.51
2019-04-26T08:06:33.347Z,27.51
2019-04-26T08:12:14.498Z,27.49
2019-04-26T08:14:54.148Z,27.37
2019-04-26T08:17:32.453Z,27.44
2019-04-26T08:20:10.656Z,27.52
2019-04-26T08:22:36.877Z,27.49
2019-04-26T08:25:06.681Z,27.51
2019-04-26T08:27:34.671Z,27.56
2019-04-26T08:32:52.927Z,27.62
2019-04-26T08:38:22.087Z,27.57
2019-04-26T08:40:45.779Z,27.65
2019-04-26T08:43:32.833Z,27.57
2019-04-26T08:46:22.139Z,27.59
2019-04-26T08:49:09.675Z,27.62
2019-04-26T08:51:37.788Z,27.71
2019-04-26T08:59:55.402Z,27.55
2019-04-26T09:02:44.548Z,27.64
2019-04-26T09:05:34.845Z,27.76
2019-04-26T09:08:04.002Z,27.60
2019-04-26T09:10:32.761Z,27.49
2019-04-26T09:13:01.000Z,27.58
2019-04-26T09:15:48.287Z,26.98
2019-04-26T09:18:16.192Z,27.50
2019-04-26T09:20:44.502Z,27.48
2019-04-26T09:23:39.950Z,27.51
2019-04-26T09:28:56.556Z,27.45
2019-04-26T09:31:32.128Z,27.55
2019-04-26T09:34:06.313Z,27.51
2019-04-26T09:36:32.860Z,27.54
2019-04-26T09:39:03.910Z,27.57
2019-04-26T09:41:30.742Z,27.53
2019-04-26T09:44:19.057Z,27.49
2019-04-26T09:47:05.962Z,27.47
2019-04-26T09:49:52.858Z,27.45
2019-04-26T09:55:13.200Z,27.49
2019-04-26T09:57:41.102Z,27.51
2019-04-26T10:03:05.552Z,27.47
2019-04-26T10:05:32.922Z,27.51
2019-04-26T10:08:00.811Z,27.52
2019-04-26T10:13:27.654Z,27.46
2019-04-26T10:16:14.619Z,27.46
2019-04-26T10:18:45.434Z,27.48
2019-04-26T10:21:13.241Z,27.49
2019-04-26T10:23:41.215Z,27.44
2019-04-26T10:26:09.217Z,27.51
2019-04-26T10:28:37.230Z,27.45
2019-04-26T10:31:05.213Z,27.44
2019-04-26T10:33:36.632Z,27.46
2019-04-26T10:36:02.939Z,27.40
2019-04-26T10:38:30.988Z,27.42
2019-04-26T10:41:18.311Z,27.41
2019-04-26T10:43:46.501Z,27.38
2019-04-26T10:46:14.470Z,27.44
2019-04-26T10:49:08.954Z,27.39
2019-04-26T10:54:24.177Z,27.37
2019-04-26T10:57:11.125Z,27.39
2019-04-26T10:59:57.974Z,27.35
2019-04-26T11:05:18.288Z,27.34
2019-04-26T11:07:42.485Z,27.37
2019-04-26T11:12:59.662Z,27.30
2019-04-26T11:15:29.128Z,27.36
2019-04-26T11:17:57.679Z,27.26
2019-04-26T11:22:54.183Z,27.34
2019-04-26T11:25:24.667Z,27.30
2019-04-26T11:27:51.638Z,27.32
2019-04-26T11:30:38.745Z,27.34
2019-04-26T11:33:25.710Z,27.35
2019-04-26T11:36:12.828Z,27.39
2019-04-26T11:38:40.770Z,27.27
2019-04-26T11:41:08.753Z,27.32
2019-04-26T11:43:36.646Z,27.38
2019-04-26T11:46:04.984Z,27.34
2019-04-26T11:48:32.957Z,27.31
2019-04-26T11:51:01.094Z,27.34
2019-04-26T11:53:28.995Z,27.27
2019-04-26T11:56:00.261Z,27.31
2019-04-26T11:58:26.600Z,27.30
2019-04-26T12:03:31.974Z,27.34
2019-04-26T12:06:21.297Z,27.31
2019-04-26T12:08:51.573Z,27.26
2019-04-26T12:11:25.874Z,27.15
2019-04-26T12:13:49.134Z,27.17
2019-04-26T12:16:18.606Z,27.17
2019-04-26T12:18:46.718Z,27.22
2019-04-26T12:21:14.706Z,27.20
2019-04-26T12:23:42.718Z,27.22
2019-04-26T12:26:10.497Z,27.28
2019-04-26T12:28:39.903Z,27.23
2019-04-26T12:33:43.590Z,27.24
2019-04-26T12:36:13.391Z,27.22
2019-04-26T12:38:41.435Z,27.21
2019-04-26T12:41:39.944Z,27.19
2019-04-26T12:43:59.673Z,27.12
2019-04-26T12:46:46.521Z,27.17
2019-04-26T12:49:14.902Z,27.22
2019-04-26T12:51:47.123Z,27.23
2019-04-26T12:54:12.618Z,27.24
2019-04-26T12:56:41.201Z,27.23
2019-04-26T12:59:09.204Z,27.15
2019-04-26T13:01:37.154Z,27.21
2019-04-26T13:04:08.094Z,27.18
2019-04-26T13:12:18.509Z,27.18
2019-04-26T13:15:05.464Z,27.16
2019-04-26T13:17:52.395Z,27.13
2019-04-26T13:20:20.358Z,27.12
2019-04-26T13:22:50.217Z,27.12
2019-04-26T13:25:26.240Z,27.16
2019-04-26T13:27:47.353Z,27.16
2019-04-26T13:32:49.175Z,27.11
2019-04-26T13:35:18.593Z,27.01
2019-04-26T13:37:46.751Z,27.04
2019-04-26T13:40:14.755Z,27.07
2019-04-26T13:45:48.458Z,27.04
2019-04-26T13:48:35.268Z,27.09
2019-04-26T13:51:05.981Z,27.12
2019-04-26T13:53:35.366Z,27.09
2019-04-26T13:56:03.475Z,27.06
2019-04-26T13:58:31.401Z,27.04
2019-04-26T14:00:59.665Z,27.07
2019-04-26T14:03:31.491Z,27.01
2019-04-26T14:05:57.763Z,27.04
2019-04-26T14:08:25.641Z,26.97
2019-04-26T14:10:53.680Z,26.97
2019-04-26T14:13:25.086Z,27.00
2019-04-26T14:18:40.560Z,27.08
2019-04-26T14:21:08.664Z,27.09
2019-04-26T14:23:55.476Z,27.06
2019-04-26T14:26:39.819Z,27.05
2019-04-26T14:31:40.224Z,26.99
2019-04-26T14:34:27.028Z,26.99
2019-04-26T14:37:05.868Z,27.01
2019-04-26T14:39:35.230Z,26.99
2019-04-26T14:41:57.076Z,26.94
2019-04-26T14:44:27.212Z,27.02
2019-04-26T14:46:56.792Z,27.02
2019-04-26T14:49:24.734Z,27.01
2019-04-26T14:51:56.077Z,27.01
2019-04-26T14:54:22.924Z,27.06
2019-04-26T14:56:52.451Z,27.08
2019-04-26T14:59:45.534Z,27.08
2019-04-26T15:02:28.153Z,27.03
2019-04-26T15:05:15.085Z,27.04
2019-04-26T15:07:49.483Z,27.04
2019-04-26T15:10:13.973Z,27.10
2019-04-26T15:12:48.255Z,27.07
2019-04-26T15:15:12.074Z,27.02
2019-04-26T15:17:40.060Z,27.05
2019-04-26T15:20:27.423Z,27.08
2019-04-26T15:22:55.335Z,26.99
2019-04-26T15:25:23.101Z,27.01
2019-04-26T15:27:52.461Z,27.01
2019-04-26T15:30:22.034Z,27.00
2019-04-26T15:32:50.502Z,26.99
2019-04-26T15:35:18.499Z,27.02
2019-04-26T15:37:46.311Z,27.03
2019-04-26T15:40:35.069Z,27.03
2019-04-26T15:46:15.885Z,26.95
2019-04-26T15:49:04.754Z,27.00
2019-04-26T15:51:33.389Z,26.97
2019-04-26T15:54:01.165Z,26.96
2019-04-26T15:56:29.054Z,26.93
2019-04-26T15:58:56.942Z,26.95
2019-04-26T16:01:24.957Z,26.89
2019-04-26T16:03:53.205Z,26.92
2019-04-26T16:06:21.023Z,26.92
2019-04-26T16:08:49.012Z,26.92
2019-04-26T16:11:17.010Z,26.87
2019-04-26T16:13:51.292Z,26.89
2019-04-26T16:16:16.498Z,26.90
2019-04-26T16:18:44.182Z,26.85
2019-04-26T16:21:17.666Z,26.82
2019-04-26T16:23:50.861Z,26.88
2019-04-26T16:26:12.766Z,26.92
2019-04-26T16:29:18.290Z,26.83
2019-04-26T16:32:06.747Z,26.86
2019-04-26T16:34:35.409Z,26.82
2019-04-26T16:37:03.316Z,26.77
2019-04-26T16:39:38.346Z,26.75
2019-04-26T16:42:05.120Z,26.78
2019-04-26T16:44:31.829Z,26.77
2019-04-26T16:47:03.664Z,26.83
2019-04-26T16:49:29.834Z,26.82
2019-04-26T16:52:02.037Z,26.76
2019-04-26T16:54:27.581Z,26.83
2019-04-26T16:56:58.926Z,26.77
2019-04-26T16:59:26.809Z,26.80
2019-04-26T17:01:54.808Z,26.80
2019-04-26T17:04:43.602Z,26.76
2019-04-26T17:07:13.276Z,26.78
2019-04-26T17:09:56.992Z,26.75
2019-04-26T17:14:57.511Z,26.78
2019-04-26T17:17:25.327Z,26.78
2019-04-26T17:19:53.105Z,26.73
2019-04-26T17:25:24.231Z,26.76
2019-04-26T17:27:50.068Z,26.70
2019-04-26T17:33:29.128Z,26.69
2019-04-26T17:38:44.198Z,26.67
2019-04-26T17:41:13.582Z,26.72
2019-04-26T17:43:47.680Z,26.72
2019-04-26T17:49:00.413Z,26.65
2019-04-26T17:51:28.334Z,26.70
2019-04-26T17:54:18.861Z,26.72
2019-04-26T17:56:30.520Z,26.72
2019-04-26T17:58:55.434Z,26.70
2019-04-26T18:01:41.966Z,26.71
2019-04-26T18:03:55.767Z,26.74
2019-04-26T18:06:29.460Z,26.67
2019-04-26T18:08:54.975Z,26.70
2019-04-26T18:14:20.799Z,26.70
2019-04-26T18:19:33.456Z,26.72
2019-04-26T18:22:06.680Z,26.68
2019-04-26T18:24:35.094Z,26.72
2019-04-26T18:29:37.969Z,26.66
2019-04-26T18:32:05.944Z,26.68
2019-04-26T18:34:37.190Z,26.65
2019-04-26T18:42:10.612Z,26.66
2019-04-26T18:44:43.403Z,26.59
2019-04-26T18:47:28.349Z,26.57
2019-04-26T18:55:30.383Z,26.57
2019-04-26T18:58:03.612Z,26.58
2019-04-26T19:00:47.821Z,26.63
2019-04-26T19:03:16.175Z,26.62
2019-04-26T19:05:44.293Z,26.63
2019-04-26T19:08:12.751Z,26.55
2019-04-26T19:10:43.562Z,26.58
2019-04-26T19:13:35.770Z,26.55
2019-04-26T19:16:18.897Z,26.60
2019-04-26T19:19:05.838Z,26.53
2019-04-26T19:21:54.571Z,26.53
2019-04-26T19:24:23.047Z,26.52
2019-04-26T19:26:52.516Z,26.56
2019-04-26T19:29:27.052Z,26.57
2019-04-26T19:31:51.907Z,26.48
2019-04-26T19:34:19.698Z,26.55
2019-04-26T19:39:35.833Z,26.55
2019-04-26T19:42:06.220Z,26.54
2019-04-26T19:44:34.828Z,26.52
2019-04-26T19:47:22.688Z,26.53
2019-04-26T19:49:56.947Z,26.54
2019-04-26T19:52:45.026Z,26.54
2019-04-26T19:55:41.804Z,26.50
2019-04-26T19:58:16.111Z,26.50
2019-04-26T20:00:43.466Z,26.47
2019-04-26T20:03:13.471Z,26.50
2019-04-26T20:05:44.087Z,26.49
2019-04-26T20:08:12.049Z,26.44
2019-04-26T20:10:43.425Z,26.44
2019-04-26T20:13:15.167Z,26.43
2019-04-26T20:15:40.231Z,26.45
2019-04-26T20:18:08.326Z,26.38
2019-04-26T20:20:36.442Z,26.33
2019-04-26T20:23:25.023Z,26.32
2019-04-26T20:25:53.486Z,26.34
2019-04-26T20:28:22.798Z,26.36
2019-04-26T20:31:12.192Z,26.31
2019-04-26T20:33:40.141Z,26.31
2019-04-26T20:36:08.062Z,26.30
2019-04-26T20:38:45.515Z,26.35
2019-04-26T20:41:05.723Z,26.33
2019-04-26T20:43:36.326Z,26.29
2019-04-26T20:46:14.459Z,26.30
2019-04-26T20:48:33.286Z,26.32
2019-04-26T20:51:02.336Z,26.31
2019-04-26T20:53:39.901Z,26.29
2019-04-26T20:56:05.302Z,26.28
2019-04-26T20:58:30.143Z,26.25
2019-04-26T21:00:58.068Z,26.28
2019-04-26T21:03:27.827Z,26.28
2019-04-26T21:05:59.033Z,26.29
2019-04-26T21:08:26.885Z,26.29
2019-04-26T21:10:56.043Z,26.32
2019-04-26T21:13:30.545Z,26.33
2019-04-26T21:18:44.279Z,26.27
2019-04-26T21:21:12.075Z,26.31
2019-04-26T21:23:42.341Z,26.29
2019-04-26T21:26:32.089Z,26.23
2019-04-26T21:29:21.804Z,26.27
2019-04-26T21:32:07.566Z,26.22
2019-04-26T21:34:37.664Z,26.23
2019-04-26T21:37:24.616Z,26.21
2019-04-26T21:40:11.644Z,26.23
2019-04-26T21:42:42.627Z,26.23
2019-04-26T21:45:09.268Z,26.29
2019-04-26T21:47:37.375Z,26.31
2019-04-26T21:50:05.471Z,26.28
2019-04-26T21:52:34.275Z,26.28
2019-04-26T21:55:04.572Z,26.26
2019-04-26T21:57:34.873Z,26.24
2019-04-26T22:00:04.160Z,26.23
2019-04-26T22:02:34.880Z,26.19
2019-04-26T22:05:03.506Z,26.26
2019-04-26T22:07:32.782Z,26.27
2019-04-26T22:12:55.071Z,26.27
2019-04-26T22:15:42.128Z,26.23
2019-04-26T22:18:21.512Z,26.30
2019-04-26T22:20:52.814Z,26.37
2019-04-26T22:23:39.918Z,26.27
2019-04-26T22:26:09.069Z,26.31
2019-04-26T22:28:37.619Z,26.29
2019-04-26T22:31:08.470Z,26.30
2019-04-26T22:33:35.440Z,26.31
2019-04-26T22:36:03.959Z,26.34
2019-04-26T22:38:34.012Z,26.31
2019-04-26T22:41:03.064Z,26.30
2019-04-26T22:43:54.036Z,26.24
2019-04-26T22:46:47.311Z,26.29
2019-04-26T22:51:58.138Z,26.28
2019-04-26T22:54:26.319Z,26.29
2019-04-26T22:56:54.304Z,26.26
2019-04-26T22:59:22.966Z,26.29
2019-04-26T23:01:53.554Z,26.29
2019-04-26T23:04:23.572Z,26.24
2019-04-26T23:06:51.646Z,26.23
2019-04-26T23:09:20.791Z,26.25
2019-04-26T23:15:03.067Z,26.23
2019-04-26T23:17:49.807Z,26.26
2019-04-26T23:23:13.490Z,26.24
2019-04-26T23:25:41.562Z,26.20
2019-04-26T23:28:09.402Z,26.24
2019-04-26T23:30:37.333Z,26.22
2019-04-26T23:33:05.281Z,26.21
2019-04-26T23:35:37.481Z,26.18
2019-04-26T23:38:05.193Z,26.13
2019-04-26T23:40:33.455Z,26.18
2019-04-26T23:43:02.879Z,26.14
2019-04-26T23:45:30.907Z,26.17
2019-04-26T23:47:58.821Z,26.12
2019-04-26T23:50:29.455Z,26.16
2019-04-26T23:52:56.361Z,26.12
2019-04-26T23:55:24.344Z,26.16
2019-04-26T23:57:53.488Z,26.12
